Time;durP1;ratioP1;P1;durP2;ratioP2;P2;SDS_P1;SDS_P2;PMS_P1;PMS_P2;Temp;Humidity;BMP_temperature;BMP_pressure;BME280_temperature;BME280_humidity;BME280_pressure;Samples;Min_cycle;Max_cycle;Signal;HPM_P1;HPM_P2
2022/08/22 00:01:04;;;;;;;11.57;8.27;;;;;;;19.76;100.00;94064.75;6112799;23;20171;-73
2022/08/22 00:03:43;;;;;;;15.25;9.15;;;;;;;19.47;100.00;94053.63;6113891;23;20171;-73
2022/08/22 00:06:20;;;;;;;12.77;8.77;;;;;;;19.51;100.00;94060.66;6111315;23;20501;-75
2022/08/22 00:09:11;;;;;;;14.05;8.52;;;;;;;19.47;100.00;94062.31;6112227;23;20193;-73
2022/08/22 00:11:47;;;;;;;11.63;8.15;;;;;;;19.51;100.00;94065.94;6113554;23;20157;-73
2022/08/22 00:14:22;;;;;;;15.05;9.07;;;;;;;19.53;100.00;94055.91;6111113;23;20180;-77
2022/08/22 00:17:00;;;;;;;12.85;8.20;;;;;;;19.53;100.00;94060.38;6112150;23;20167;-76
2022/08/22 00:19:40;;;;;;;14.07;9.13;;;;;;;19.55;100.00;94052.97;6113527;23;20509;-75
2022/08/22 00:22:20;;;;;;;13.05;9.73;;;;;;;19.51;100.00;94060.66;6110669;23;20199;-75
2022/08/22 00:24:54;;;;;;;15.70;9.95;;;;;;;19.49;100.00;94064.66;6112650;23;20243;-76
2022/08/22 00:27:27;;;;;;;15.27;9.80;;;;;;;19.49;100.00;94059.38;6112684;23;20203;-75
2022/08/22 00:30:00;;;;;;;19.35;11.20;;;;;;;19.43;100.00;94055.25;6111304;23;20495;-75
2022/08/22 00:32:33;;;;;;;16.30;11.38;;;;;;;19.24;100.00;94040.22;6114502;23;20235;-75
2022/08/22 00:35:07;;;;;;;17.47;12.27;;;;;;;19.13;100.00;94051.97;6114913;23;20168;-75
2022/08/22 00:37:40;;;;;;;15.52;12.10;;;;;;;19.18;100.00;94044.00;6114652;23;20187;-75
2022/08/22 00:40:22;;;;;;;18.67;12.88;;;;;;;19.32;100.00;94048.53;6113109;23;20210;-75
2022/08/22 00:43:23;;;;;;;17.27;13.15;;;;;;;19.43;100.00;94040.22;6113476;23;20240;-74
2022/08/22 00:46:05;;;;;;;17.10;12.45;;;;;;;19.40;100.00;94050.56;6113605;23;20589;-74
2022/08/22 00:49:10;;;;;;;21.83;12.87;;;;;;;19.33;100.00;94048.28;6115023;23;20245;-73
2022/08/22 00:51:54;;;;;;;21.50;12.95;;;;;;;19.31;100.00;94041.72;6114022;23;20918;-74
2022/08/22 00:54:47;;;;;;;18.52;12.80;;;;;;;19.26;100.00;94039.94;6113475;23;20167;-74
2022/08/22 00:57:53;;;;;;;19.77;13.68;;;;;;;19.12;100.00;94031.19;6113725;23;20184;-74
2022/08/22 01:00:23;;;;;;;18.77;13.00;;;;;;;19.13;100.00;94036.16;6112986;23;20210;-74
2022/08/22 01:03:27;;;;;;;19.50;12.60;;;;;;;19.17;100.00;94037.16;6114400;23;20252;-74
2022/08/22 01:06:12;;;;;;;18.15;13.32;;;;;;;19.20;100.00;94031.31;6113149;23;20202;-74
2022/08/22 01:08:59;;;;;;;19.40;12.73;;;;;;;19.21;100.00;94037.38;6113292;23;20616;-75
2022/08/22 01:12:01;;;;;;;18.63;13.10;;;;;;;19.22;100.00;94033.66;6114094;23;20606;-74
2022/08/22 01:14:41;;;;;;;18.77;12.02;;;;;;;19.28;100.00;94037.78;6114106;23;20176;-73
2022/08/22 01:17:49;;;;;;;19.23;12.40;;;;;;;19.45;100.00;94034.69;6114451;23;20160;-74
2022/08/22 01:20:49;;;;;;;18.45;13.20;;;;;;;19.46;100.00;94036.22;6112989;23;20230;-74
2022/08/22 01:23:52;;;;;;;18.35;13.55;;;;;;;19.43;100.00;94028.91;6114051;23;20195;-73
2022/08/22 01:27:03;;;;;;;18.50;12.40;;;;;;;19.35;100.00;94030.31;6112487;23;20644;-74
2022/08/22 01:30:25;;;;;;;17.10;12.88;;;;;;;19.28;100.00;94038.56;6120617;23;20178;-74
2022/08/22 01:33:23;;;;;;;18.38;12.93;;;;;;;19.18;100.00;94038.75;6174380;23;20163;-74
2022/08/22 01:36:22;;;;;;;19.45;12.90;;;;;;;19.13;100.00;94041.44;6173754;23;20201;-74
2022/08/22 01:39:25;;;;;;;20.43;13.60;;;;;;;19.10;100.00;94042.03;6112539;23;20663;-75
2022/08/22 01:42:21;;;;;;;21.17;13.30;;;;;;;19.22;100.00;94044.19;6112343;23;20168;-75
2022/08/22 01:45:23;;;;;;;20.52;13.40;;;;;;;19.26;100.00;94050.47;6113881;23;20183;-74
2022/08/22 01:47:55;;;;;;;22.77;14.15;;;;;;;19.30;100.00;94048.84;6112900;23;20168;-75
2022/08/22 01:50:30;;;;;;;21.17;13.70;;;;;;;19.25;100.00;94049.69;6113046;23;20679;-75
2022/08/22 01:53:05;;;;;;;20.10;14.15;;;;;;;19.28;100.00;94045.69;6113857;23;20164;-75
2022/08/22 01:55:36;;;;;;;20.40;13.98;;;;;;;19.50;100.00;94042.50;6114534;23;20576;-75
2022/08/22 01:58:18;;;;;;;20.67;13.38;;;;;;;19.56;100.00;94044.78;6111813;23;20188;-75
2022/08/22 02:00:58;;;;;;;20.10;13.88;;;;;;;19.61;100.00;94039.41;6113042;23;20168;-75
2022/08/22 02:03:31;;;;;;;19.52;13.88;;;;;;;19.67;100.00;94038.25;6113861;23;20165;-74
2022/08/22 02:06:06;;;;;;;22.15;14.23;;;;;;;19.67;100.00;94037.47;6113200;23;20168;-74
2022/08/22 02:08:44;;;;;;;22.00;13.98;;;;;;;19.62;100.00;94038.34;6113628;23;20263;-74
2022/08/22 02:11:13;;;;;;;22.70;14.60;;;;;;;19.67;100.00;94042.75;6114940;23;20239;-74
2022/08/22 02:13:56;;;;;;;20.67;15.38;;;;;;;19.61;100.00;94041.25;6114935;23;20175;-74
2022/08/22 02:16:32;;;;;;;23.23;14.98;;;;;;;19.35;100.00;94045.34;6113171;23;20222;-74
2022/08/22 02:19:21;;;;;;;19.92;14.05;;;;;;;19.26;100.00;94037.28;6114443;23;20727;-74
2022/08/22 02:21:54;;;;;;;21.23;15.27;;;;;;;19.22;100.00;94041.56;6113629;23;20160;-74
2022/08/22 02:24:36;;;;;;;20.40;15.35;;;;;;;19.33;100.00;94036.94;6112532;23;20175;-74
2022/08/22 02:27:12;;;;;;;21.98;15.50;;;;;;;19.33;100.00;94043.00;6114040;23;20200;-74
2022/08/22 02:29:45;;;;;;;23.60;15.13;;;;;;;19.23;100.00;94038.66;6113593;23;20160;-74
2022/08/22 02:32:20;;;;;;;20.08;14.63;;;;;;;19.16;100.00;94040.09;6112071;23;20165;-74
2022/08/22 02:34:57;;;;;;;20.98;15.18;;;;;;;19.04;100.00;94037.88;6113429;23;20509;-73
2022/08/22 02:37:35;;;;;;;24.00;14.60;;;;;;;19.00;100.00;94036.09;6113784;23;20620;-73
2022/08/22 02:40:10;;;;;;;21.55;14.32;;;;;;;19.02;100.00;94040.00;6113045;23;20156;-73
2022/08/22 02:42:43;;;;;;;21.55;15.43;;;;;;;19.00;100.00;94041.38;6113455;23;20168;-73
2022/08/22 02:45:24;;;;;;;21.40;14.70;;;;;;;18.86;100.00;94045.78;6114442;23;20172;-73
2022/08/22 02:47:59;;;;;;;21.37;14.90;;;;;;;18.79;100.00;94032.94;6112775;23;20161;-74
2022/08/22 02:50:34;;;;;;;21.80;14.70;;;;;;;18.87;100.00;94044.72;6113133;23;20160;-75
2022/08/22 02:53:10;;;;;;;19.43;13.77;;;;;;;18.91;100.00;94043.84;6113138;23;20214;-75
2022/08/22 02:55:48;;;;;;;22.03;14.97;;;;;;;19.01;100.00;94045.56;6114032;23;20160;-75
2022/08/22 02:58:23;;;;;;;21.23;14.70;;;;;;;19.05;100.00;94055.25;6111727;23;20237;-74
2022/08/22 03:01:09;;;;;;;20.67;14.10;;;;;;;18.96;100.00;94048.28;6113459;23;20156;-74
2022/08/22 03:03:38;;;;;;;22.65;14.55;;;;;;;18.88;100.00;94049.69;6113464;23;20208;-75
2022/08/22 03:06:08;;;;;;;26.17;15.20;;;;;;;18.95;100.00;94046.72;6111847;23;20592;-75
2022/08/22 03:08:40;;;;;;;23.20;14.90;;;;;;;19.08;100.00;94043.34;6113254;23;20168;-75
2022/08/22 03:11:19;;;;;;;22.08;14.95;;;;;;;19.22;100.00;94052.09;6113735;23;20171;-74
2022/08/22 03:13:57;;;;;;;20.17;14.20;;;;;;;19.12;100.00;94054.91;6112280;23;20192;-74
2022/08/22 03:16:34;;;;;;;21.60;14.48;;;;;;;19.07;100.00;94055.75;6112315;23;20175;-74
2022/08/22 03:19:06;;;;;;;25.20;14.60;;;;;;;19.05;100.00;94049.19;6113123;23;20176;-75
2022/08/22 03:21:43;;;;;;;24.83;14.70;;;;;;;19.01;100.00;94059.53;6114362;23;20168;-74
2022/08/22 03:24:16;;;;;;;22.20;14.20;;;;;;;18.98;100.00;94061.94;6111790;23;20164;-75
2022/08/22 03:26:51;;;;;;;20.23;14.00;;;;;;;18.96;100.00;94056.94;6113284;23;20215;-74
2022/08/22 03:29:22;;;;;;;21.40;14.35;;;;;;;18.94;100.00;94061.72;6113863;23;20151;-74
2022/08/22 03:32:11;;;;;;;20.40;14.45;;;;;;;18.83;100.00;94046.34;6113420;23;20157;-75
2022/08/22 03:34:39;;;;;;;22.67;15.40;;;;;;;18.89;100.00;94050.47;6112694;23;20500;-75
2022/08/22 03:37:15;;;;;;;22.20;15.10;;;;;;;18.88;100.00;94056.78;6113882;23;20172;-73
2022/08/22 03:39:59;;;;;;;22.67;14.93;;;;;;;18.87;100.00;94055.25;6112563;23;20176;-76
2022/08/22 03:43:03;;;;;;;21.52;14.82;;;;;;;18.86;100.00;94053.66;6112709;23;20247;-73
2022/08/22 03:45:56;;;;;;;23.20;14.53;;;;;;;18.78;100.00;94051.69;6114221;23;20175;-73
2022/08/22 03:48:55;;;;;;;22.25;14.80;;;;;;;18.68;100.00;94052.59;6111146;23;20164;-73
2022/08/22 03:51:40;;;;;;;21.88;14.95;;;;;;;18.71;100.00;94046.75;6113137;23;20655;-74
2022/08/22 03:54:50;;;;;;;23.00;15.45;;;;;;;18.53;100.00;94053.56;6111432;23;20164;-73
2022/08/22 03:57:57;;;;;;;23.83;15.17;;;;;;;18.40;100.00;94050.78;6113038;23;20180;-74
2022/08/22 04:01:02;;;;;;;23.70;15.03;;;;;;;18.30;100.00;94035.91;6111907;23;20164;-73
2022/08/22 04:04:05;;;;;;;22.00;15.07;;;;;;;18.33;100.00;94052.97;6112314;23;20199;-72
2022/08/22 04:07:06;;;;;;;22.80;14.93;;;;;;;18.37;100.00;94032.94;6113866;23;20251;-74
2022/08/22 04:09:55;;;;;;;23.00;15.23;;;;;;;18.46;100.00;94050.47;6145651;23;20176;-73
2022/08/22 04:13:00;;;;;;;23.27;15.17;;;;;;;18.50;100.00;94051.47;6113466;23;20167;-73
2022/08/22 04:16:04;;;;;;;33.50;22.13;;;;;;;18.57;100.00;94051.16;6113842;23;20171;-73
2022/08/22 04:19:06;;;;;;;46.67;27.63;;;;;;;18.64;100.00;94049.72;6112777;23;20660;-73
2022/08/22 04:21:57;;;;;;;44.83;28.03;;;;;;;18.74;100.00;94051.44;6133670;23;20237;-74
2022/08/22 04:24:42;;;;;;;36.22;23.60;;;;;;;18.92;100.00;94053.31;6111231;23;20188;-74
2022/08/22 04:27:18;;;;;;;32.25;20.83;;;;;;;19.14;100.00;94056.16;6114034;23;20246;-73
2022/08/22 04:29:54;;;;;;;34.10;19.20;;;;;;;19.20;100.00;94055.03;6112960;23;20601;-73
2022/08/22 04:32:26;;;;;;;24.75;17.08;;;;;;;19.34;100.00;94054.31;6112854;23;20164;-73
2022/08/22 04:34:59;;;;;;;23.83;15.97;;;;;;;19.29;100.00;94052.53;6113902;23;20171;-73
2022/08/22 04:37:35;;;;;;;22.65;15.73;;;;;;;19.42;100.00;94064.25;6113484;23;20171;-73
2022/08/22 04:40:10;;;;;;;23.60;15.25;;;;;;;19.41;100.00;94060.81;6112382;23;20184;-74
2022/08/22 04:42:42;;;;;;;21.83;14.70;;;;;;;19.33;100.00;94058.03;6113313;23;20203;-73
2022/08/22 04:45:17;;;;;;;20.83;14.93;;;;;;;19.10;100.00;94049.13;6114343;23;20608;-74
2022/08/22 04:47:51;;;;;;;18.77;12.98;;;;;;;19.15;100.00;94060.38;6112717;23;20217;-74
2022/08/22 04:50:21;;;;;;;22.23;13.80;;;;;;;19.19;100.00;94061.38;6113192;23;20163;-73
2022/08/22 04:53:12;;;;;;;22.87;13.87;;;;;;;19.13;100.00;94059.09;6113357;23;20520;-73
2022/08/22 04:55:52;;;;;;;22.50;13.73;;;;;;;18.99;100.00;94059.00;6114118;23;20160;-73
2022/08/22 04:58:31;;;;;;;26.45;14.15;;;;;;;19.00;100.00;94067.69;6111552;23;20674;-73
2022/08/22 05:01:09;;;;;;;20.60;13.45;;;;;;;19.08;100.00;94069.69;6114745;23;20161;-73
2022/08/22 05:03:47;;;;;;;21.05;12.80;;;;;;;19.34;100.00;94068.25;6114323;23;20163;-78
2022/08/22 05:06:18;;;;;;;19.40;13.40;;;;;;;19.23;100.00;94069.50;6112448;23;20339;-74
2022/08/22 05:08:47;;;;;;;21.25;13.52;;;;;;;19.01;100.00;94072.69;6113477;23;20161;-72
2022/08/22 05:11:18;;;;;;;23.65;13.88;;;;;;;18.92;100.00;94077.03;6113847;23;20226;-72
2022/08/22 05:13:49;;;;;;;20.30;12.77;;;;;;;18.95;100.00;94084.38;6112969;23;20638;-72
2022/08/22 05:16:23;;;;;;;19.37;13.70;;;;;;;19.03;100.00;94086.38;6112015;23;20161;-73
2022/08/22 05:18:54;;;;;;;19.53;13.80;;;;;;;19.14;100.00;94092.25;6113101;23;20180;-73
2022/08/22 05:21:28;;;;;;;22.58;14.77;;;;;;;19.11;100.00;94087.56;6114391;23;20168;-73
2022/08/22 05:24:00;;;;;;;18.75;13.73;;;;;;;19.16;100.00;94085.66;6112746;23;20688;-74
2022/08/22 05:26:29;;;;;;;19.75;13.48;;;;;;;19.22;100.00;94084.50;6113212;23;20200;-74
2022/08/22 05:29:02;;;;;;;20.70;14.10;;;;;;;19.29;100.00;94094.69;6112960;23;20168;-75
2022/08/22 05:31:33;;;;;;;19.38;14.02;;;;;;;19.36;100.00;94092.50;6113702;23;20167;-72
2022/08/22 05:34:04;;;;;;;23.63;14.10;;;;;;;19.46;100.00;94094.22;6113234;23;20604;-73
2022/08/22 05:36:38;;;;;;;21.88;14.77;;;;;;;19.45;100.00;94095.31;6113783;23;20165;-72
2022/08/22 05:39:11;;;;;;;20.27;13.50;;;;;;;19.55;100.00;94092.50;6113321;23;20181;-73
2022/08/22 05:41:39;;;;;;;22.73;14.02;;;;;;;19.64;100.00;94096.06;6113498;23;20616;-73
2022/08/22 05:44:16;;;;;;;21.80;13.52;;;;;;;19.65;100.00;94097.63;6112415;23;20172;-73
2022/08/22 05:46:48;;;;;;;23.77;13.90;;;;;;;19.88;100.00;94099.38;6114263;23;20256;-73
2022/08/22 05:49:19;;;;;;;18.85;13.43;;;;;;;20.12;100.00;94104.50;6114231;23;20666;-73
2022/08/22 05:51:52;;;;;;;21.55;13.23;;;;;;;20.03;100.00;94111.53;6113159;23;20172;-73
2022/08/22 05:54:24;;;;;;;19.17;13.18;;;;;;;20.11;100.00;94116.94;6112871;23;20192;-73
2022/08/22 05:56:54;;;;;;;23.75;14.02;;;;;;;20.22;100.00;94123.59;6114038;23;20179;-73
2022/08/22 05:59:28;;;;;;;19.95;14.02;;;;;;;20.26;100.00;94135.16;6114317;23;20490;-73
2022/08/22 06:02:06;;;;;;;21.50;13.20;;;;;;;20.16;100.00;94126.59;6112688;23;20168;-74
2022/08/22 06:04:39;;;;;;;20.42;13.57;;;;;;;20.08;100.00;94135.97;6114267;23;20165;-72
2022/08/22 06:07:11;;;;;;;16.55;12.48;;;;;;;20.04;100.00;94132.34;6114474;23;20167;-73
2022/08/22 06:10:01;;;;;;;23.42;13.80;;;;;;;19.93;100.00;94133.56;6114081;23;20153;-74
2022/08/22 06:12:34;;;;;;;23.67;13.40;;;;;;;19.87;100.00;94126.81;6113679;23;20167;-73
2022/08/22 06:15:07;;;;;;;20.90;13.65;;;;;;;20.07;100.00;94125.69;6115006;23;20156;-75
2022/08/22 06:17:39;;;;;;;18.98;12.88;;;;;;;20.20;100.00;94127.59;6113889;23;20160;-73
2022/08/22 06:20:08;;;;;;;20.73;12.73;;;;;;;20.41;100.00;94128.03;6111344;23;20184;-73
2022/08/22 06:22:42;;;;;;;20.08;12.25;;;;;;;20.52;100.00;94126.78;6113421;23;20168;-73
2022/08/22 06:25:14;;;;;;;18.55;12.73;;;;;;;20.67;100.00;94132.56;6113256;23;20558;-73
2022/08/22 06:27:42;;;;;;;17.85;13.00;;;;;;;20.92;100.00;94126.00;6112036;23;20214;-73
2022/08/22 06:30:13;;;;;;;15.50;12.13;;;;;;;21.14;100.00;94134.03;6111766;23;20176;-73
2022/08/22 06:32:47;;;;;;;16.77;12.75;;;;;;;21.08;100.00;94139.72;6074307;23;20661;-73
2022/08/22 06:35:21;;;;;;;15.25;11.43;;;;;;;20.90;100.00;94139.50;6111725;23;20160;-73
2022/08/22 06:37:50;;;;;;;16.58;11.20;;;;;;;20.77;100.00;94144.78;6110942;23;20160;-72
2022/08/22 06:40:18;;;;;;;17.13;11.88;;;;;;;20.80;100.00;94138.94;6110542;23;20206;-73
2022/08/22 06:42:50;;;;;;;15.60;12.10;;;;;;;20.80;100.00;94134.44;6111986;23;20176;-71
2022/08/22 06:45:22;;;;;;;17.35;11.50;;;;;;;20.81;100.00;94140.47;6114908;23;20188;-72
2022/08/22 06:47:57;;;;;;;14.45;11.38;;;;;;;20.83;100.00;94138.34;6111451;23;20195;-74
2022/08/22 06:50:30;;;;;;;16.23;11.73;;;;;;;20.77;100.00;94136.88;6112084;23;20758;-73
2022/08/22 06:53:01;;;;;;;17.45;11.80;;;;;;;20.91;100.00;94132.38;6113063;23;20187;-73
2022/08/22 06:55:30;;;;;;;16.10;10.95;;;;;;;21.11;100.00;94136.47;6113884;23;20559;-73
2022/08/22 06:57:59;;;;;;;17.05;10.43;;;;;;;21.25;100.00;94137.25;6110199;23;20179;-73
2022/08/22 07:00:27;;;;;;;16.58;9.88;;;;;;;21.33;100.00;94134.69;6112340;23;20282;-73
2022/08/22 07:03:00;;;;;;;17.83;11.05;;;;;;;21.38;100.00;94131.94;6112447;23;20516;-72
2022/08/22 07:05:34;;;;;;;16.02;11.05;;;;;;;21.21;100.00;94118.53;6114689;23;20222;-74
2022/08/22 07:08:07;;;;;;;17.17;10.95;;;;;;;21.25;100.00;94126.66;6112634;23;20542;-73
2022/08/22 07:10:34;;;;;;;13.13;10.10;;;;;;;21.44;100.00;94128.09;6114615;23;20244;-73
2022/08/22 07:13:02;;;;;;;15.35;10.38;;;;;;;21.53;100.00;94141.38;6114113;23;20172;-73
2022/08/22 07:15:34;;;;;;;16.65;8.88;;;;;;;21.41;100.00;94133.22;6113661;23;20566;-74
2022/08/22 07:18:04;;;;;;;13.27;9.32;;;;;;;21.44;100.00;94143.94;6111461;23;20624;-75
2022/08/22 07:20:35;;;;;;;14.25;9.68;;;;;;;21.47;100.00;94143.34;6114347;23;20204;-73
2022/08/22 07:23:05;;;;;;;15.88;9.73;;;;;;;21.59;100.00;94150.78;6114492;23;20164;-73
2022/08/22 07:25:39;;;;;;;17.05;10.88;;;;;;;21.71;100.00;94145.75;6114520;23;20163;-73
2022/08/22 07:28:20;;;;;;;14.38;9.48;;;;;;;21.90;100.00;94145.63;6110773;23;20183;-73
2022/08/22 07:30:56;;;;;;;14.93;9.82;;;;;;;22.11;100.00;94151.22;6112767;23;20156;-77
2022/08/22 07:33:47;;;;;;;14.50;10.65;;;;;;;22.10;100.00;94149.63;6112934;23;20168;-75
2022/08/22 07:36:30;;;;;;;15.13;10.65;;;;;;;22.18;100.00;94154.22;6114260;23;20180;-76
2022/08/22 07:39:12;;;;;;;16.60;10.30;;;;;;;22.09;100.00;94146.22;6112101;23;20603;-77
2022/08/22 07:41:49;;;;;;;15.38;10.25;;;;;;;22.15;100.00;94145.00;6113897;23;20157;-75
2022/08/22 07:44:18;;;;;;;15.45;10.27;;;;;;;22.34;100.00;94142.94;6112010;23;20164;-75
2022/08/22 07:46:55;;;;;;;12.18;9.10;;;;;;;22.59;100.00;94144.16;6113044;23;20168;-75
2022/08/22 07:49:27;;;;;;;15.88;11.35;;;;;;;22.63;98.94;94148.53;6113654;23;20222;-75
2022/08/22 07:51:58;;;;;;;13.48;10.45;;;;;;;22.58;98.08;94148.66;6113795;23;20218;-75
2022/08/22 07:54:34;;;;;;;15.13;10.40;;;;;;;22.42;98.37;94136.88;6113113;23;20199;-75
2022/08/22 07:57:06;;;;;;;18.50;10.88;;;;;;;22.36;98.32;94143.44;6113749;23;20188;-74
2022/08/22 07:59:35;;;;;;;16.25;10.85;;;;;;;22.36;98.64;94143.44;6114408;23;20176;-74
2022/08/22 08:02:06;;;;;;;17.75;10.27;;;;;;;22.41;99.39;94151.22;6112640;23;20176;-75
2022/08/22 08:04:37;;;;;;;16.00;11.23;;;;;;;22.47;99.24;94143.94;6113199;23;20337;-75
2022/08/22 08:07:08;;;;;;;15.93;11.00;;;;;;;22.46;98.92;94137.06;6114654;23;20171;-75
2022/08/22 08:09:41;;;;;;;13.43;9.77;;;;;;;22.57;98.75;94133.84;6113045;23;20169;-75
2022/08/22 08:12:11;;;;;;;14.73;9.55;;;;;;;22.72;97.01;94137.22;6112118;23;20184;-75
2022/08/22 08:14:42;;;;;;;15.57;10.32;;;;;;;22.88;97.38;94139.16;6113795;23;20188;-75
2022/08/22 08:17:16;;;;;;;17.10;11.07;;;;;;;23.08;96.94;94145.78;6112625;23;20247;-75
2022/08/22 08:19:47;;;;;;;14.38;10.73;;;;;;;23.10;95.16;94138.28;6114374;23;20275;-76
2022/08/22 08:22:18;;;;;;;14.15;10.40;;;;;;;23.14;95.19;94136.59;6112372;23;20210;-76
2022/08/22 08:24:46;;;;;;;16.60;11.15;;;;;;;23.23;94.46;94133.94;6112945;23;20161;-76
2022/08/22 08:30:14;;;;;;;16.92;10.95;;;;;;;23.29;94.22;94132.72;6075877;23;20176;-75
2022/08/22 08:32:47;;;;;;;16.42;10.32;;;;;;;23.09;93.29;94128.75;6107697;23;20511;-75
2022/08/22 08:35:22;;;;;;;18.23;10.40;;;;;;;23.12;93.53;94131.56;6113764;23;20235;-77
2022/08/22 08:37:52;;;;;;;15.10;9.95;;;;;;;23.29;94.37;94138.03;6112616;23;20427;-75
2022/08/22 08:40:46;;;;;;;15.35;9.55;;;;;;;23.55;92.87;94129.00;6111643;23;20200;-75
2022/08/22 08:43:28;;;;;;;14.77;10.43;;;;;;;23.80;91.64;94135.44;6113890;23;20156;-75
2022/08/22 08:46:36;;;;;;;16.20;10.52;;;;;;;23.95;91.52;94134.19;6112405;23;20514;-75
2022/08/22 08:49:28;;;;;;;14.52;10.73;;;;;;;23.89;90.05;94125.59;6114305;23;20156;-76
2022/08/22 08:52:28;;;;;;;18.73;10.98;;;;;;;23.78;90.70;94129.63;6112359;23;20628;-76
2022/08/22 08:55:18;;;;;;;15.63;10.23;;;;;;;23.88;91.49;94125.91;6115025;23;20662;-74
2022/08/22 08:58:02;;;;;;;17.08;10.20;;;;;;;24.00;90.10;94126.84;6112639;23;20643;-75
2022/08/22 09:00:55;;;;;;;13.15;10.00;;;;;;;24.34;91.31;94131.31;6114744;23;20238;-75
2022/08/22 09:03:42;;;;;;;15.63;9.65;;;;;;;24.51;87.94;94127.84;6113725;23;20176;-76
2022/08/22 09:06:34;;;;;;;15.20;9.95;;;;;;;24.53;86.80;94125.66;6111614;23;20211;-76
2022/08/22 09:09:19;;;;;;;17.13;9.35;;;;;;;24.50;86.84;94124.38;6113784;23;20164;-75
2022/08/22 09:12:16;;;;;;;14.32;9.80;;;;;;;24.50;86.01;94124.38;6112673;23;20160;-75
2022/08/22 09:15:09;;;;;;;10.68;8.40;;;;;;;24.59;85.42;94127.81;6113407;23;20161;-75
2022/08/22 09:18:01;;;;;;;15.82;9.05;;;;;;;24.69;86.96;94127.47;6103109;23;20168;-75
2022/08/22 09:20:59;;;;;;;14.38;9.77;;;;;;;24.72;85.46;94120.72;6113019;23;20192;-75
2022/08/22 09:23:59;;;;;;;16.33;9.95;;;;;;;24.70;85.25;94118.38;6113622;23;20160;-76
2022/08/22 09:26:38;;;;;;;18.00;10.00;;;;;;;24.71;85.10;94127.91;6112440;23;20210;-75
2022/08/22 09:29:18;;;;;;;13.52;10.23;;;;;;;24.77;85.73;94136.50;6112725;23;20157;-78
2022/08/22 09:31:52;;;;;;;15.50;10.15;;;;;;;24.76;84.71;94126.97;6112265;23;20596;-74
2022/08/22 09:34:28;;;;;;;13.63;9.75;;;;;;;24.82;84.75;94126.50;6111388;23;20164;-75
2022/08/22 09:37:08;;;;;;;15.02;10.93;;;;;;;24.96;85.52;94131.63;6113136;23;20164;-75
2022/08/22 09:39:45;;;;;;;13.68;10.30;;;;;;;25.09;85.76;94129.81;6112492;23;20168;-76
2022/08/22 09:42:30;;;;;;;16.13;10.30;;;;;;;25.26;84.26;94125.19;6111536;23;20171;-76
2022/08/22 09:45:34;;;;;;;13.75;10.30;;;;;;;25.28;83.13;94122.22;6107263;23;20161;-75
2022/08/22 09:48:11;;;;;;;13.88;9.55;;;;;;;25.42;82.61;94117.41;6110748;23;20165;-76
2022/08/22 09:50:48;;;;;;;13.48;8.98;;;;;;;25.62;81.98;94116.69;6111718;23;20161;-78
2022/08/22 09:53:35;;;;;;;13.88;9.18;;;;;;;25.69;80.43;94113.47;6112187;23;20591;-77
2022/08/22 09:56:07;;;;;;;15.25;9.52;;;;;;;25.70;80.39;94115.81;6112158;23;20168;-77
2022/08/22 09:58:38;;;;;;;15.00;9.57;;;;;;;25.72;81.01;94108.28;6111799;23;20514;-77
2022/08/22 10:01:24;;;;;;;10.27;8.43;;;;;;;25.79;80.60;94103.22;6113239;23;20667;-78
2022/08/22 10:04:32;;;;;;;20.67;10.02;;;;;;;25.74;80.01;94105.31;6113506;23;20491;-77
2022/08/22 10:07:07;;;;;;;16.33;10.05;;;;;;;25.99;80.72;94090.97;6132259;23;20176;-77
2022/08/22 10:09:44;;;;;;;11.77;8.18;;;;;;;26.50;77.39;94100.34;6112862;23;20591;-75
2022/08/22 10:12:19;;;;;;;10.57;8.93;;;;;;;26.71;77.35;94087.72;6111688;23;20485;-76
2022/08/22 10:15:03;;;;;;;11.50;9.13;;;;;;;27.11;74.89;94087.06;6113005;23;20163;-77
2022/08/22 10:17:36;;;;;;;15.93;9.75;;;;;;;27.44;73.44;94085.84;6110520;23;20161;-77
2022/08/22 10:20:13;;;;;;;12.50;8.82;;;;;;;27.75;71.99;94092.41;6112048;23;20523;-77
2022/08/22 10:22:46;;;;;;;10.93;9.13;;;;;;;27.60;71.16;94091.22;6113639;23;20511;-76
2022/08/22 10:25:29;;;;;;;11.90;8.93;;;;;;;27.55;72.57;94086.13;6114154;23;20161;-77
2022/08/22 10:28:09;;;;;;;15.45;9.45;;;;;;;27.53;72.33;94088.38;6111442;23;20208;-75
2022/08/22 10:30:45;;;;;;;14.38;9.02;;;;;;;27.33;72.31;94082.03;6112293;23;20167;-76
2022/08/22 10:33:22;;;;;;;13.57;8.85;;;;;;;27.03;73.28;94080.75;6113367;23;20166;-75
2022/08/22 10:36:00;;;;;;;12.73;9.15;;;;;;;27.04;74.15;94068.97;6112523;23;20639;-75
2022/08/22 10:38:34;;;;;;;14.55;9.48;;;;;;;27.33;73.06;94073.25;6112591;23;20164;-75
2022/08/22 10:41:07;;;;;;;13.02;8.73;;;;;;;27.71;70.60;94070.94;6112724;23;20177;-76
2022/08/22 10:43:43;;;;;;;12.35;9.27;;;;;;;27.96;70.92;94063.63;6113162;23;20183;-76
2022/08/22 10:46:16;;;;;;;13.10;8.63;;;;;;;28.29;70.96;94068.69;6110917;23;20690;-78
2022/08/22 10:48:48;;;;;;;11.30;8.75;;;;;;;28.49;68.52;94062.31;6111986;23;20163;-77
2022/08/22 10:51:40;;;;;;;10.75;8.40;;;;;;;28.86;68.63;94063.63;6113768;23;20153;-77
2022/08/22 10:54:37;;;;;;;11.90;9.32;;;;;;;28.89;67.36;94062.94;6111972;23;20214;-77
2022/08/22 10:57:32;;;;;;;12.50;8.88;;;;;;;29.13;66.00;94060.06;6114296;23;20615;-77
2022/08/22 11:00:09;;;;;;;12.85;8.05;;;;;;;29.43;66.59;94064.94;6112832;23;20167;-78
2022/08/22 11:02:53;;;;;;;13.00;8.90;;;;;;;29.50;64.40;94062.41;6113094;23;20156;-78
2022/08/22 11:05:41;;;;;;;14.35;9.05;;;;;;;29.40;65.27;94061.06;6105061;23;20650;-78
2022/08/22 11:08:54;;;;;;;13.75;9.23;;;;;;;29.68;65.08;94060.88;6110863;23;20169;-76
2022/08/22 11:11:36;;;;;;;15.38;9.43;;;;;;;29.75;63.64;94058.34;6139374;23;20183;-78
2022/08/22 11:14:21;;;;;;;14.32;8.65;;;;;;;29.60;64.27;94051.13;6112584;23;20515;-78
2022/08/22 11:16:57;;;;;;;14.82;9.23;;;;;;;29.76;63.53;94051.84;6113636;23;20568;-76
2022/08/22 11:19:42;;;;;;;11.88;8.35;;;;;;;29.78;64.84;94050.34;6117187;23;20160;-78
2022/08/22 11:22:25;;;;;;;10.75;7.97;;;;;;;30.18;64.57;94055.38;6117923;23;20267;-76
2022/08/22 11:25:28;;;;;;;12.20;7.97;;;;;;;30.61;63.08;94054.22;6116779;23;20483;-76
2022/08/22 11:28:09;;;;;;;14.23;9.32;;;;;;;30.60;61.55;94047.28;6115402;23;20437;-76
2022/08/22 11:30:45;;;;;;;10.48;8.48;;;;;;;30.77;61.70;94043.34;6117024;23;20184;-76
2022/08/22 11:33:23;;;;;;;17.52;9.00;;;;;;;30.27;62.88;94044.41;6117453;23;20157;-76
2022/08/22 11:35:55;;;;;;;12.13;8.20;;;;;;;30.26;64.16;94049.00;6117481;23;20160;-75
2022/08/22 11:38:33;;;;;;;12.68;8.45;;;;;;;30.19;63.38;94048.84;6117316;23;20238;-77
2022/08/22 11:41:05;;;;;;;10.98;8.52;;;;;;;30.00;62.28;94040.84;6117799;23;20191;-77
2022/08/22 11:43:41;;;;;;;12.88;8.38;;;;;;;29.64;63.31;94049.31;6117317;23;20167;-78
2022/08/22 11:46:20;;;;;;;13.95;9.18;;;;;;;29.41;65.74;94053.81;6117173;23;20174;-77
2022/08/22 11:49:05;;;;;;;12.43;8.98;;;;;;;29.10;66.40;94047.38;6117331;23;20164;-77
2022/08/22 11:52:00;;;;;;;10.27;8.48;;;;;;;28.77;67.78;94041.66;6117665;23;20172;-78
2022/08/22 11:54:35;;;;;;;14.23;8.77;;;;;;;28.45;67.88;94027.50;6117999;23;20157;-78
2022/08/22 11:57:06;;;;;;;11.43;8.63;;;;;;;28.22;68.68;94031.88;6117421;23;20167;-79
2022/08/22 12:00:04;;;;;;;13.75;10.13;;;;;;;27.96;68.93;94036.88;6116566;23;20165;-76
2022/08/22 12:02:41;;;;;;;13.73;9.48;;;;;;;27.65;71.06;94031.47;6117665;23;20616;-76
2022/08/22 12:05:14;;;;;;;14.38;9.63;;;;;;;27.57;75.52;94030.47;6117833;23;20170;-79
2022/08/22 12:07:48;;;;;;;13.13;10.30;;;;;;;27.56;78.75;94035.03;6116704;23;20214;-79
2022/08/22 12:10:21;;;;;;;15.13;9.48;;;;;;;27.55;79.33;94032.72;6117604;23;20168;-76
2022/08/22 12:12:57;;;;;;;16.35;10.65;;;;;;;27.23;79.24;94031.00;6117509;23;20169;-78
2022/08/22 12:15:29;;;;;;;18.80;11.15;;;;;;;26.73;83.97;94026.03;6117530;23;20156;-77